»·PEaware :: CGHFO KPSP-KTOA

CGHFO :: KPSP-KTOA

FLIGHT INFORMATION

Flight Status: Arrived
Operator: Unknown
More flights by this operator :: More flights under this callsign
Pilot: Basie S. (26327)
Aircraft: BEECH AIRCRAFT DEBONAIR BONANZA
(BE33)
More flights by this aircraft type
Origin: KPSP Palm Springs Intl
United States
Destination: KTOA Zamperini
United States
More flights between these airports :: More routes between these airports
Route: +PSP V388 PDZ DOWDD V394 SLI
File this flight plan on PilotEdge
Remarks: TEC ROUTE PSPP8A
Altitude:
(Current/Filed)
10,000ft
Speed:
(Current/Filed)
155kts
Departed: 14-Dec-19 10:59 AM
Arrived: 14-Dec-19 12:05 PM
Distance/Time
Traveled:
92nm/1:06
Distance/Time
To Go:
Arrived

Flight Plot

Page will automatically refresh every two minutes.

Flight plan parsing failed; only flown route is shown


Map Options




Map Legend


Flown Route
Filed Route
Departure Airport
Arrival Airport
Navaid (VOR, NDB)
Fix

Horizontal Profiles

Position Reports

Time Latitude Longitude Heading Altitude Ground
Speed
14-Dec-19 10:36 33.822649 -116.506634 359 481ft 0kts
14-Dec-19 10:37 33.822649 -116.506634 359 481ft 0kts
14-Dec-19 10:39 33.822649 -116.506634 359 481ft 0kts
14-Dec-19 10:40 33.822649 -116.506634 359 481ft 0kts
14-Dec-19 10:41 33.822649 -116.506634 359 481ft 0kts
14-Dec-19 10:42 33.822649 -116.506634 359 481ft 0kts
14-Dec-19 10:43 33.822649 -116.506634 359 481ft 0kts
14-Dec-19 10:44 33.822649 -116.506634 359 481ft 0kts
14-Dec-19 10:45 33.822665 -116.506631 21 481ft 0kts
14-Dec-19 10:46 33.822582 -116.506468 148 481ft 0kts
14-Dec-19 10:47 33.822582 -116.506468 148 481ft 0kts
14-Dec-19 10:48 33.822620 -116.506013 65 481ft 3kts
14-Dec-19 10:49 33.823043 -116.504095 96 481ft 6kts
14-Dec-19 10:50 33.822044 -116.502912 144 481ft 6kts
14-Dec-19 10:51 33.820314 -116.501394 142 481ft 11kts
14-Dec-19 10:52 33.818507 -116.499056 89 481ft 0kts
14-Dec-19 10:53 33.818507 -116.499056 89 481ft 0kts
14-Dec-19 10:54 33.818507 -116.499056 89 481ft 0kts
14-Dec-19 10:55 33.818507 -116.499056 89 481ft 0kts
14-Dec-19 10:55 33.818507 -116.499056 89 481ft 0kts
14-Dec-19 10:57 33.818507 -116.499056 89 481ft 0kts
14-Dec-19 10:58 33.818520 -116.498828 80 481ft 4kts
14-Dec-19 10:58 33.826867 -116.505102 327 485ft 100kts
14-Dec-19 11:00 33.857109 -116.533366 318 1336ft 135kts
14-Dec-19 11:00 33.880674 -116.557990 319 1834ft 134kts
14-Dec-19 11:01 33.907183 -116.554741 89 2404ft 137kts
14-Dec-19 11:03 33.892636 -116.503627 106 3101ft 138kts
14-Dec-19 11:03 33.881676 -116.467418 105 3595ft 138kts
14-Dec-19 11:04 33.867211 -116.422384 113 4202ft 149kts
14-Dec-19 11:05 33.847837 -116.376849 112 4807ft 155kts
14-Dec-19 11:06 33.828120 -116.330653 111 5396ft 156kts
14-Dec-19 11:07 33.808492 -116.284658 109 5983ft 153kts
14-Dec-19 11:08 33.814901 -116.247592 356 6527ft 149kts
14-Dec-19 11:09 33.834982 -116.280279 294 7182ft 126kts
14-Dec-19 11:10 33.844360 -116.319663 294 7758ft 115kts
14-Dec-19 11:11 33.853056 -116.354813 292 8322ft 104kts
14-Dec-19 11:12 33.861080 -116.387051 290 8889ft 97kts
14-Dec-19 11:13 33.868548 -116.417027 289 9456ft 90kts
14-Dec-19 11:14 33.875539 -116.445133 288 9980ft 88kts
14-Dec-19 11:15 33.883793 -116.478220 288 9994ft 112kts
14-Dec-19 11:16 33.893018 -116.515376 288 9992ft 118kts
14-Dec-19 11:17 33.902459 -116.553488 288 9991ft 119kts
14-Dec-19 11:18 33.911945 -116.591855 288 9991ft 119kts
14-Dec-19 11:19 33.921387 -116.630100 288 9990ft 119kts
14-Dec-19 11:20 33.930551 -116.667268 287 10006ft 119kts
14-Dec-19 11:21 33.940030 -116.705760 287 10022ft 120kts
14-Dec-19 11:22 33.948382 -116.744818 274 10039ft 122kts
14-Dec-19 11:23 33.946991 -116.785972 273 10054ft 123kts
14-Dec-19 11:24 33.945538 -116.827225 273 10071ft 123kts
14-Dec-19 11:25 33.944127 -116.868402 273 10088ft 123kts
14-Dec-19 11:26 33.942710 -116.910334 273 9930ft 133kts
14-Dec-19 11:27 33.941077 -116.957376 274 9430ft 145kts
14-Dec-19 11:28 33.939346 -117.005840 275 8929ft 151kts
14-Dec-19 11:29 33.937582 -117.056676 259 8435ft 154kts
14-Dec-19 11:30 33.935568 -117.108715 259 7957ft 158kts
14-Dec-19 11:31 33.933505 -117.162127 259 7472ft 162kts
14-Dec-19 11:32 33.931049 -117.217751 275 6980ft 169kts
14-Dec-19 11:33 33.928714 -117.274751 274 6468ft 171kts
14-Dec-19 11:34 33.926182 -117.331418 272 6092ft 162kts
14-Dec-19 11:35 33.923905 -117.382946 273 6092ft 149kts
14-Dec-19 11:36 33.921975 -117.432698 274 6093ft 149kts
14-Dec-19 11:37 33.919942 -117.483015 275 6093ft 151kts
14-Dec-19 11:38 33.918904 -117.533904 289 6091ft 148kts
14-Dec-19 11:39 33.929675 -117.582495 276 6101ft 156kts
14-Dec-19 11:40 33.941518 -117.635898 277 5765ft 171kts
14-Dec-19 11:41 33.953930 -117.691674 278 5288ft 176kts
14-Dec-19 11:42 33.966247 -117.747234 291 4781ft 168kts
14-Dec-19 11:43 33.978136 -117.800248 290 4258ft 160kts
14-Dec-19 11:44 33.960565 -117.844252 204 4081ft 163kts
14-Dec-19 11:45 33.919227 -117.863613 189 4072ft 158kts
14-Dec-19 11:46 33.875652 -117.868525 182 4077ft 156kts
14-Dec-19 11:47 33.835634 -117.874114 182 4075ft 129kts
14-Dec-19 11:48 33.802056 -117.878954 182 4079ft 116kts
14-Dec-19 11:49 33.769939 -117.883164 183 4084ft 120kts
14-Dec-19 11:50 33.735638 -117.887153 182 4082ft 125kts
14-Dec-19 11:51 33.700704 -117.891275 182 4081ft 126kts
14-Dec-19 11:52 33.673460 -117.912088 269 3777ft 158kts
14-Dec-19 11:53 33.673635 -117.965666 270 3284ft 161kts
14-Dec-19 11:54 33.671234 -118.018174 270 2789ft 158kts
14-Dec-19 11:55 33.669331 -118.070384 270 2285ft 154kts
14-Dec-19 11:56 33.675052 -118.118544 281 2084ft 135kts
14-Dec-19 11:57 33.685656 -118.160415 307 2087ft 131kts
14-Dec-19 11:58 33.707911 -118.195105 310 2087ft 130kts
14-Dec-19 11:59 33.730566 -118.229135 310 2086ft 129kts
14-Dec-19 12:00 33.750828 -118.259646 310 1863ft 105kts
14-Dec-19 12:01 33.769463 -118.287608 310 1237ft 109kts
14-Dec-19 12:02 33.788519 -118.316254 309 573ft 104kts
14-Dec-19 12:03 33.803830 -118.339273 308 107ft 49kts
14-Dec-19 12:04 33.805978 -118.344924 233 107ft 6kts
14-Dec-19 12:05 33.805613 -118.345318 217 107ft 0kts
14-Dec-19 12:06 33.805090 -118.345200 122 107ft 14kts
14-Dec-19 12:07 33.802586 -118.343217 316 107ft 0kts

Navigation Log

Ident Type
Flight plan parsing failed, navigation log unavailable